Time;durP1;ratioP1;P1;durP2;ratioP2;P2;SDS_P1;SDS_P2;PMS_P1;PMS_P2;Temp;Humidity;BMP_temperature;BMP_pressure;BME280_temperature;BME280_humidity;BME280_pressure;Samples;Min_cycle;Max_cycle;Signal;HPM_P1;HPM_P2
2021/08/24 00:00:29;;;;;;;8.23;5.15;;;15.40;41.90;;;;;;5107808;27;20180;-74
2021/08/24 00:02:59;;;;;;;6.22;4.80;;;15.50;37.60;;;;;;5097312;28;20503;-75
2021/08/24 00:05:36;;;;;;;6.03;4.72;;;15.50;36.70;;;;;;5110531;28;20132;-74
2021/08/24 00:08:04;;;;;;;5.80;4.70;;;15.50;34.70;;;;;;5112240;27;20051;-74
2021/08/24 00:10:34;;;;;;;7.10;5.10;;;15.60;35.70;;;;;;5104712;28;20047;-75
2021/08/24 00:13:03;;;;;;;8.80;4.63;;;15.50;35.70;;;;;;5106847;28;20853;-74
2021/08/24 00:15:32;;;;;;;5.20;4.68;;;15.60;36.00;;;;;;5108574;27;20126;-74
2021/08/24 00:18:02;;;;;;;5.57;4.97;;;15.60;37.60;;;;;;5066855;28;20056;-74
2021/08/24 00:20:31;;;;;;;5.13;4.63;;;15.50;37.00;;;;;;5104312;27;20146;-75
2021/08/24 00:23:01;;;;;;;5.20;4.63;;;15.50;36.40;;;;;;5088809;28;20048;-75
2021/08/24 00:25:30;;;;;;;6.65;4.32;;;15.50;36.70;;;;;;5082588;28;20130;-74
2021/08/24 00:28:06;;;;;;;5.97;4.85;;;15.50;36.80;;;;;;5096979;28;20115;-75
2021/08/24 00:30:35;;;;;;;5.78;4.45;;;15.50;37.60;;;;;;5089402;28;20081;-75
2021/08/24 00:33:04;;;;;;;9.07;4.25;;;15.50;38.60;;;;;;5091766;28;20082;-75
2021/08/24 00:35:34;;;;;;;5.13;4.57;;;15.50;38.40;;;;;;5079113;28;20119;-74
2021/08/24 00:38:02;;;;;;;5.53;4.07;;;15.40;36.80;;;;;;5094050;28;20047;-74
2021/08/24 00:40:30;;;;;;;4.68;4.03;;;15.40;37.50;;;;;;5093935;28;20423;-74
2021/08/24 00:42:58;;;;;;;6.78;4.28;;;15.50;37.80;;;;;;5094690;28;20510;-74
2021/08/24 00:45:26;;;;;;;6.03;4.90;;;15.40;37.60;;;;;;5095386;28;20138;-74
2021/08/24 00:47:55;;;;;;;7.05;4.72;;;15.40;36.50;;;;;;5095543;28;20051;-75
2021/08/24 00:50:29;;;;;;;5.57;4.13;;;15.40;37.10;;;;;;5095119;28;20090;-74
2021/08/24 00:53:00;;;;;;;4.93;4.43;;;15.40;38.00;;;;;;5088533;28;20090;-75
2021/08/24 00:55:28;;;;;;;7.70;4.50;;;15.30;37.40;;;;;;5096062;28;20101;-75
2021/08/24 00:58:01;;;;;;;6.95;5.30;;;15.30;37.70;;;;;;5097265;28;20495;-74
2021/08/24 01:00:31;;;;;;;7.05;5.68;;;15.30;38.70;;;;;;5090238;27;20096;-74
2021/08/24 01:03:06;;;;;;;6.43;5.22;;;15.20;41.20;;;;;;5061233;28;20051;-75
2021/08/24 01:05:36;;;;;;;7.38;6.45;;;15.20;42.80;;;;;;5075831;28;20129;-74
2021/08/24 01:08:09;;;;;;;7.40;5.63;;;15.20;43.80;;;;;;5088909;28;20074;-75
2021/08/24 01:10:41;;;;;;;7.15;5.68;;;15.10;43.20;;;;;;5091480;28;20124;-74
2021/08/24 01:13:18;;;;;;;6.78;5.93;;;15.00;45.00;;;;;;5095774;28;20093;-74
2021/08/24 01:15:55;;;;;;;6.97;6.18;;;15.00;46.50;;;;;;5098345;28;20059;-75
2021/08/24 01:18:31;;;;;;;7.38;6.45;;;15.00;47.90;;;;;;5093545;28;20470;-74
2021/08/24 01:21:34;;;;;;;7.75;6.68;;;14.80;48.80;;;;;;5057338;28;20554;-73
2021/08/24 01:24:06;;;;;;;8.05;6.22;;;14.70;49.40;;;;;;5091982;28;20068;-74
2021/08/24 01:26:40;;;;;;;6.78;6.05;;;14.60;49.50;;;;;;5091020;28;20061;-73
2021/08/24 01:29:45;;;;;;;9.57;6.53;;;14.60;47.80;;;;;;5094519;28;20130;-74
2021/08/24 01:32:27;;;;;;;7.95;6.10;;;14.60;46.20;;;;;;5091838;28;20105;-74
2021/08/24 01:35:13;;;;;;;7.03;5.97;;;14.50;47.90;;;;;;5096760;28;20134;-74
2021/08/24 01:37:48;;;;;;;8.95;5.82;;;14.40;48.20;;;;;;5091167;28;20301;-74
2021/08/24 01:40:21;;;;;;;8.65;6.70;;;14.40;48.90;;;;;;5090700;28;20093;-74
2021/08/24 01:42:50;;;;;;;8.90;6.35;;;14.40;49.80;;;;;;5071590;28;20127;-74
2021/08/24 01:45:23;;;;;;;7.60;6.13;;;14.30;49.30;;;;;;5094086;28;20052;-74
2021/08/24 01:47:54;;;;;;;6.80;6.03;;;14.20;49.20;;;;;;5096426;28;20047;-74
2021/08/24 01:50:28;;;;;;;9.45;5.60;;;14.20;48.70;;;;;;5089711;28;20320;-76
2021/08/24 01:53:04;;;;;;;8.10;5.75;;;14.20;49.10;;;;;;5091823;28;20055;-74
2021/08/24 01:55:38;;;;;;;9.10;5.93;;;14.10;48.50;;;;;;5091166;28;20258;-74
2021/08/24 01:58:10;;;;;;;;;;;14.00;48.90;;;;;;5095019;28;20112;-74
2021/08/24 02:00:43;;;;;;;7.88;6.10;;;14.00;48.90;;;;;;5066858;28;19958;-74
2021/08/24 02:03:14;;;;;;;5.78;5.13;;;14.00;49.00;;;;;;5084162;28;20512;-74
2021/08/24 02:05:46;;;;;;;9.45;5.60;;;14.00;49.00;;;;;;5092896;28;20549;-73
2021/08/24 02:08:21;;;;;;;6.80;6.05;;;13.90;48.00;;;;;;5093012;28;20489;-74
2021/08/24 02:10:52;;;;;;;6.20;5.35;;;13.90;48.70;;;;;;5071957;28;20099;-74
2021/08/24 02:13:22;;;;;;;6.28;5.60;;;13.80;48.70;;;;;;5093296;28;20116;-74
2021/08/24 02:15:54;;;;;;;6.28;5.20;;;13.80;48.80;;;;;;5096480;28;20124;-74
2021/08/24 02:18:28;;;;;;;7.05;5.97;;;13.80;48.80;;;;;;5093909;28;20067;-74
2021/08/24 02:21:02;;;;;;;7.03;5.32;;;13.70;49.00;;;;;;5090534;28;20151;-74
2021/08/24 02:23:33;;;;;;;6.80;5.45;;;13.70;49.50;;;;;;5088609;28;20051;-74
2021/08/24 02:26:06;;;;;;;7.75;5.80;;;13.70;49.60;;;;;;5093259;28;20131;-76
2021/08/24 02:28:37;;;;;;;6.60;5.53;;;13.60;50.10;;;;;;5081391;28;20066;-74
2021/08/24 02:31:13;;;;;;;6.75;5.07;;;13.60;50.20;;;;;;5094010;28;20063;-74
2021/08/24 02:33:47;;;;;;;7.28;5.82;;;13.60;50.40;;;;;;5089979;28;20289;-74
2021/08/24 02:36:16;;;;;;;7.30;5.60;;;13.60;51.00;;;;;;5093756;28;20067;-75
2021/08/24 02:38:54;;;;;;;8.07;5.72;;;13.50;51.00;;;;;;5094794;28;20047;-76
2021/08/24 02:41:28;;;;;;;7.03;5.60;;;13.50;51.60;;;;;;5095168;28;20124;-76
2021/08/24 02:44:01;;;;;;;9.73;6.30;;;13.50;51.60;;;;;;5091725;28;20097;-76
2021/08/24 02:46:32;;;;;;;7.65;6.20;;;13.50;52.10;;;;;;5090335;28;20044;-76
2021/08/24 02:49:04;;;;;;;9.80;6.63;;;13.40;52.50;;;;;;5095848;28;20059;-76
2021/08/24 02:51:33;;;;;;;9.90;6.88;;;13.40;52.50;;;;;;5090062;28;20071;-73
2021/08/24 02:54:09;;;;;;;7.28;6.18;;;13.30;52.80;;;;;;5096887;28;20571;-74
2021/08/24 02:56:37;;;;;;;8.27;7.03;;;13.30;52.80;;;;;;5091796;28;20122;-74
2021/08/24 02:59:05;;;;;;;6.95;6.10;;;13.30;53.70;;;;;;5094630;28;20039;-73
2021/08/24 03:01:34;;;;;;;7.55;6.72;;;13.20;53.40;;;;;;5093395;28;20071;-74
2021/08/24 03:04:03;;;;;;;7.65;6.28;;;13.20;54.50;;;;;;5094497;28;20142;-74
2021/08/24 03:06:33;;;;;;;10.30;6.90;;;13.20;54.30;;;;;;5096247;28;20048;-74
2021/08/24 03:09:03;;;;;;;13.00;8.00;;;13.20;55.40;;;;;;5095407;28;20085;-74
2021/08/24 03:11:37;;;;;;;10.15;7.15;;;13.20;55.20;;;;;;5086950;28;20504;-74
2021/08/24 03:14:12;;;;;;;8.30;7.13;;;13.10;54.50;;;;;;5088409;28;20051;-74
2021/08/24 03:16:44;;;;;;;8.77;7.30;;;13.10;55.10;;;;;;5091237;28;20059;-74
2021/08/24 03:19:17;;;;;;;12.50;7.95;;;13.00;55.70;;;;;;5092651;28;20048;-74
2021/08/24 03:21:46;;;;;;;12.52;7.75;;;13.00;55.90;;;;;;5083950;28;20048;-75
2021/08/24 03:24:18;;;;;;;9.43;7.32;;;13.00;56.20;;;;;;5058587;28;20050;-73
2021/08/24 03:26:48;;;;;;;10.45;7.30;;;13.00;56.20;;;;;;5094534;28;20055;-73
2021/08/24 03:29:18;;;;;;;9.68;7.97;;;13.00;56.40;;;;;;5091521;28;20048;-74
2021/08/24 03:31:51;;;;;;;12.45;9.43;;;13.00;56.50;;;;;;5088117;28;20505;-74
2021/08/24 03:34:20;;;;;;;8.95;7.65;;;13.00;56.20;;;;;;5094819;28;20047;-74
2021/08/24 03:36:48;;;;;;;9.73;8.73;;;13.00;56.20;;;;;;5091845;28;20105;-74
2021/08/24 03:39:17;;;;;;;9.95;8.88;;;12.90;56.10;;;;;;5095306;28;20104;-74
2021/08/24 03:41:46;;;;;;;9.80;8.55;;;12.90;56.10;;;;;;5089830;28;20323;-75
2021/08/24 03:44:14;;;;;;;12.50;9.35;;;12.90;56.10;;;;;;5090287;28;20060;-75
2021/08/24 03:46:42;;;;;;;9.93;8.88;;;12.90;56.60;;;;;;5093543;28;20075;-74
2021/08/24 03:49:10;;;;;;;10.13;8.90;;;12.90;56.70;;;;;;5090435;28;20144;-75
2021/08/24 03:51:37;;;;;;;13.15;9.95;;;12.80;56.60;;;;;;5084821;28;20048;-75
2021/08/24 03:54:05;;;;;;;11.63;9.52;;;12.70;55.90;;;;;;5093784;28;20130;-74
2021/08/24 03:56:35;;;;;;;10.30;9.15;;;12.70;56.70;;;;;;5094022;28;20054;-74
2021/08/24 03:59:03;;;;;;;9.60;8.38;;;12.70;56.90;;;;;;5100295;28;20097;-75
2021/08/24 04:01:31;;;;;;;11.48;10.27;;;12.70;57.10;;;;;;5091481;28;20159;-74
2021/08/24 04:03:59;;;;;;;12.23;10.13;;;12.70;57.20;;;;;;5093896;27;20047;-75
2021/08/24 04:06:27;;;;;;;11.85;9.82;;;12.70;57.40;;;;;;5098701;28;20048;-75
2021/08/24 04:08:55;;;;;;;12.60;9.75;;;12.70;57.60;;;;;;5075672;28;20083;-75
2021/08/24 04:11:23;;;;;;;12.35;9.75;;;12.60;57.60;;;;;;5098409;28;20054;-74
2021/08/24 04:13:55;;;;;;;13.40;10.77;;;12.60;57.70;;;;;;5094274;28;20104;-74
2021/08/24 04:16:23;;;;;;;15.98;10.60;;;12.50;57.90;;;;;;5095243;28;20085;-74
2021/08/24 04:18:51;;;;;;;12.05;10.00;;;12.60;58.20;;;;;;5075747;28;20089;-75
2021/08/24 04:21:19;;;;;;;11.95;10.02;;;12.50;57.90;;;;;;5070617;28;20564;-74
2021/08/24 04:23:49;;;;;;;13.52;10.85;;;12.60;58.20;;;;;;5075820;28;20109;-74
2021/08/24 04:26:18;;;;;;;12.98;10.85;;;12.60;58.40;;;;;;5076545;28;20566;-75
2021/08/24 04:28:46;;;;;;;14.15;10.38;;;12.60;58.30;;;;;;5074286;28;20563;-75
2021/08/24 04:31:19;;;;;;;12.60;10.55;;;12.50;57.80;;;;;;5079642;28;20044;-74
2021/08/24 04:33:47;;;;;;;12.80;10.93;;;12.50;58.20;;;;;;5092445;28;20105;-74
2021/08/24 04:36:15;;;;;;;14.68;11.35;;;12.50;58.30;;;;;;5094144;28;20046;-74
2021/08/24 04:38:43;;;;;;;13.88;11.85;;;12.60;59.10;;;;;;5094652;28;20071;-74
2021/08/24 04:41:11;;;;;;;13.85;11.30;;;12.60;59.10;;;;;;5091049;28;20056;-75
2021/08/24 04:43:39;;;;;;;13.98;11.02;;;12.50;59.00;;;;;;5091156;28;20044;-74
2021/08/24 04:46:08;;;;;;;13.20;10.63;;;12.50;59.10;;;;;;5099626;28;20105;-74
2021/08/24 04:48:38;;;;;;;12.60;10.88;;;12.60;59.00;;;;;;5072546;28;20047;-75
2021/08/24 04:51:06;;;;;;;13.45;10.40;;;12.90;57.10;;;;;;5093551;28;20082;-74
2021/08/24 04:53:35;;;;;;;12.68;10.60;;;13.50;54.40;;;;;;5073898;28;20043;-74
2021/08/24 04:56:03;;;;;;;11.60;10.23;;;13.70;51.80;;;;;;5093103;28;20039;-74
2021/08/24 04:58:30;;;;;;;14.55;9.25;;;13.90;47.50;;;;;;5098626;28;20151;-74
2021/08/24 05:00:58;;;;;;;12.20;9.40;;;13.90;44.70;;;;;;5093034;28;20104;-75
2021/08/24 05:03:29;;;;;;;9.82;8.80;;;13.40;46.00;;;;;;5092918;28;20566;-75
2021/08/24 05:05:59;;;;;;;9.63;8.45;;;13.20;50.60;;;;;;5098783;28;20130;-75
2021/08/24 05:08:27;;;;;;;11.02;9.00;;;13.00;52.50;;;;;;5097454;28;20052;-75
2021/08/24 05:10:56;;;;;;;11.02;9.32;;;12.90;53.30;;;;;;5092178;28;20054;-74
2021/08/24 05:13:24;;;;;;;20.17;10.65;;;12.80;54.60;;;;;;5091900;27;20491;-74
2021/08/24 05:15:52;;;;;;;13.77;10.00;;;12.70;56.80;;;;;;5096096;28;20152;-74
2021/08/24 05:18:20;;;;;;;26.77;13.52;;;12.60;57.30;;;;;;5092901;28;20051;-74
2021/08/24 05:20:48;;;;;;;32.33;13.05;;;12.40;58.40;;;;;;5095998;28;20055;-74
2021/08/24 05:23:17;;;;;;;19.40;12.55;;;12.30;59.50;;;;;;5090683;28;20120;-74
2021/08/24 05:25:47;;;;;;;64.93;15.15;;;12.30;59.50;;;;;;5091565;28;20142;-74
2021/08/24 05:28:18;;;;;;;110.00;16.70;;;12.40;60.20;;;;;;5093294;28;20044;-74
2021/08/24 05:30:46;;;;;;;21.48;11.93;;;12.20;59.80;;;;;;5089593;28;20052;-74
2021/08/24 05:33:14;;;;;;;19.92;13.25;;;12.20;60.30;;;;;;5094991;28;20044;-74
2021/08/24 05:35:42;;;;;;;29.40;15.00;;;12.30;61.00;;;;;;5094241;28;20063;-74
2021/08/24 05:38:10;;;;;;;28.00;13.85;;;12.50;61.50;;;;;;5083670;28;20123;-74
2021/08/24 05:40:39;;;;;;;20.95;11.07;;;12.40;61.40;;;;;;5049034;28;20097;-74
2021/08/24 05:43:07;;;;;;;29.45;13.43;;;12.20;60.70;;;;;;5056645;28;20192;-74
2021/08/24 05:45:35;;;;;;;34.53;12.68;;;12.40;61.60;;;;;;5077636;28;20135;-74
2021/08/24 05:48:03;;;;;;;27.90;14.18;;;12.50;62.00;;;;;;5093678;28;20078;-74
2021/08/24 05:50:31;;;;;;;18.95;12.80;;;12.60;62.20;;;;;;5091382;28;20055;-74
2021/08/24 05:52:59;;;;;;;18.65;12.88;;;12.60;62.20;;;;;;5089420;28;20044;-74
2021/08/24 05:55:28;;;;;;;14.77;12.27;;;12.70;61.90;;;;;;5091399;28;20082;-74
2021/08/24 05:57:57;;;;;;;11.98;10.68;;;12.70;60.30;;;;;;5090443;28;20096;-74
2021/08/24 06:00:25;;;;;;;11.27;10.07;;;12.90;61.70;;;;;;5090681;28;20043;-74
2021/08/24 06:02:54;;;;;;;12.85;10.70;;;12.90;60.20;;;;;;5090199;28;20044;-74
2021/08/24 06:05:22;;;;;;;14.48;10.13;;;12.90;60.10;;;;;;5098205;28;20040;-74
2021/08/24 06:07:50;;;;;;;13.68;11.38;;;12.70;58.80;;;;;;5094397;28;20060;-74
2021/08/24 06:10:19;;;;;;;11.82;10.63;;;12.80;60.00;;;;;;5085478;28;20706;-74
2021/08/24 06:12:47;;;;;;;13.20;10.90;;;12.80;60.00;;;;;;5088817;28;20054;-75
2021/08/24 06:15:17;;;;;;;14.40;12.05;;;13.00;60.20;;;;;;5095116;28;20056;-75
2021/08/24 06:17:47;;;;;;;14.57;12.23;;;13.10;60.30;;;;;;5094965;28;20044;-75
2021/08/24 06:20:15;;;;;;;13.73;11.18;;;13.10;60.20;;;;;;5090352;28;20526;-75
2021/08/24 06:22:43;;;;;;;13.30;11.30;;;13.10;57.90;;;;;;5094015;28;20132;-75
2021/08/24 06:25:12;;;;;;;13.57;11.00;;;13.10;58.60;;;;;;5088269;28;20548;-75
2021/08/24 06:27:40;;;;;;;14.15;11.02;;;13.10;58.50;;;;;;5092926;28;20128;-75
2021/08/24 06:30:10;;;;;;;12.90;10.90;;;13.10;57.90;;;;;;5072517;28;20064;-75
2021/08/24 06:32:44;;;;;;;13.23;10.35;;;13.20;57.90;;;;;;5088261;28;20051;-75
2021/08/24 06:35:12;;;;;;;12.13;10.10;;;13.30;55.80;;;;;;5095760;28;20052;-75
2021/08/24 06:37:41;;;;;;;13.32;9.85;;;13.30;53.40;;;;;;5094595;28;20055;-74
2021/08/24 06:40:10;;;;;;;14.77;10.60;;;13.40;54.10;;;;;;5092821;28;20043;-75
2021/08/24 06:42:40;;;;;;;11.73;10.45;;;13.40;54.70;;;;;;5091368;28;20071;-75
2021/08/24 06:45:11;;;;;;;16.02;10.82;;;13.30;54.50;;;;;;5092138;28;20051;-75
2021/08/24 06:47:40;;;;;;;15.25;11.05;;;13.40;55.30;;;;;;5094669;28;20059;-75
2021/08/24 06:50:09;;;;;;;14.10;11.00;;;13.50;53.70;;;;;;5092023;28;20048;-75
2021/08/24 06:52:37;;;;;;;14.88;10.52;;;13.40;53.30;;;;;;5091496;28;20048;-75
2021/08/24 06:55:08;;;;;;;13.90;10.27;;;13.50;54.10;;;;;;5089984;28;20044;-75
2021/08/24 06:57:37;;;;;;;12.60;9.55;;;13.60;52.70;;;;;;5074740;28;20052;-75
2021/08/24 07:00:08;;;;;;;13.13;10.00;;;13.70;51.20;;;;;;5090448;28;20101;-75
2021/08/24 07:02:40;;;;;;;13.68;10.05;;;13.60;49.70;;;;;;5098435;28;20067;-75
2021/08/24 07:05:09;;;;;;;10.60;9.20;;;13.80;51.60;;;;;;5088539;28;20093;-75
2021/08/24 07:07:37;;;;;;;11.93;9.52;;;13.70;47.10;;;;;;5092433;28;20044;-75
2021/08/24 07:10:06;;;;;;;11.13;9.20;;;13.70;48.60;;;;;;5086080;28;20044;-75
2021/08/24 07:12:35;;;;;;;14.73;10.40;;;13.80;50.00;;;;;;5090443;28;20051;-75
2021/08/24 07:15:05;;;;;;;14.80;10.57;;;13.70;50.50;;;;;;5088475;28;20096;-75
2021/08/24 07:17:33;;;;;;;12.73;9.60;;;13.60;50.00;;;;;;5091772;28;20480;-75
2021/08/24 07:20:03;;;;;;;10.98;8.90;;;13.70;49.20;;;;;;5092517;28;20059;-75
2021/08/24 07:22:32;;;;;;;13.40;9.85;;;13.80;47.40;;;;;;5091146;28;20506;-75
2021/08/24 07:25:01;;;;;;;11.82;9.45;;;13.80;46.10;;;;;;5086506;28;20047;-75
2021/08/24 07:27:29;;;;;;;11.70;9.38;;;13.90;46.30;;;;;;5095377;28;20109;-75
2021/08/24 07:29:58;;;;;;;9.23;8.23;;;13.70;48.60;;;;;;5092049;28;20073;-75
2021/08/24 07:32:26;;;;;;;10.75;8.70;;;13.90;48.10;;;;;;5093984;28;20723;-75
2021/08/24 07:34:54;;;;;;;10.63;7.55;;;14.00;47.10;;;;;;5099132;28;20273;-75
2021/08/24 07:37:23;;;;;;;10.00;7.60;;;14.10;42.60;;;;;;5100053;28;20116;-74
2021/08/24 07:39:51;;;;;;;7.05;6.35;;;14.30;40.90;;;;;;5096437;28;20063;-74
2021/08/24 07:42:19;;;;;;;6.60;5.60;;;14.30;38.10;;;;;;5087006;28;20062;-75
2021/08/24 07:44:48;;;;;;;9.20;6.22;;;14.40;38.30;;;;;;5097376;28;20056;-75
2021/08/24 07:47:16;;;;;;;7.43;6.47;;;14.50;36.30;;;;;;5097143;28;20048;-75
2021/08/24 07:49:47;;;;;;;6.93;5.85;;;14.70;36.80;;;;;;5098265;28;20080;-75
2021/08/24 07:52:15;;;;;;;7.93;5.35;;;14.80;32.70;;;;;;5090900;28;20320;-75
2021/08/24 07:54:45;;;;;;;6.85;5.03;;;14.90;31.40;;;;;;5089898;28;20125;-76
2021/08/24 07:57:13;;;;;;;4.70;4.10;;;14.80;33.60;;;;;;5094380;28;20051;-75
2021/08/24 07:59:41;;;;;;;6.43;5.03;;;14.80;32.70;;;;;;5094823;28;20048;-75
2021/08/24 08:02:15;;;;;;;5.82;4.95;;;14.80;30.70;;;;;;5092216;28;20109;-75
2021/08/24 08:04:44;;;;;;;5.68;4.45;;;15.00;29.90;;;;;;5098347;28;20039;-75
2021/08/24 08:07:13;;;;;;;6.57;4.90;;;15.30;28.60;;;;;;5097581;28;20043;-75
2021/08/24 08:09:41;;;;;;;5.50;4.03;;;14.90;28.20;;;;;;5090677;28;20051;-76
2021/08/24 08:12:11;;;;;;;5.30;4.07;;;15.20;25.70;;;;;;5090889;28;20081;-76
2021/08/24 08:14:39;;;;;;;6.35;3.50;;;15.10;24.90;;;;;;5094896;28;20054;-75
2021/08/24 08:17:10;;;;;;;6.75;3.90;;;14.90;25.40;;;;;;5094207;28;20052;-75
2021/08/24 08:19:38;;;;;;;8.30;3.70;;;15.00;22.00;;;;;;5096364;28;20139;-76
2021/08/24 08:22:08;;;;;;;4.53;3.75;;;15.60;22.60;;;;;;5097142;28;20109;-74
2021/08/24 08:24:37;;;;;;;5.10;3.42;;;15.90;18.60;;;;;;5093198;28;20046;-74
2021/08/24 08:27:05;;;;;;;5.50;3.67;;;15.70;15.30;;;;;;5099268;28;20520;-75
2021/08/24 08:29:35;;;;;;;4.32;3.15;;;15.90;15.40;;;;;;5093256;28;20410;-75
2021/08/24 08:32:09;;;;;;;4.75;3.00;;;16.10;14.50;;;;;;5091538;28;20062;-75
2021/08/24 08:34:37;;;;;;;5.30;3.05;;;16.10;13.20;;;;;;5089262;28;20044;-75
2021/08/24 08:37:06;;;;;;;5.00;3.17;;;16.20;11.90;;;;;;5093867;28;20043;-75
2021/08/24 08:39:34;;;;;;;4.72;2.65;;;16.50;11.10;;;;;;5094255;28;20495;-75
2021/08/24 08:42:13;;;;;;;3.45;2.63;;;16.30;9.50;;;;;;5096703;28;20047;-75
2021/08/24 08:44:50;;;;;;;3.20;2.70;;;16.40;10.20;;;;;;5090724;28;20069;-75
2021/08/24 08:47:30;;;;;;;7.68;3.90;;;16.50;11.30;;;;;;5096058;28;20072;-74
2021/08/24 08:50:05;;;;;;;3.42;2.80;;;16.50;9.40;;;;;;5093523;27;20104;-76
2021/08/24 08:52:51;;;;;;;5.00;2.72;;;16.20;9.20;;;;;;5095276;28;20060;-75
2021/08/24 08:55:29;;;;;;;6.00;3.08;;;16.30;9.30;;;;;;5092521;28;20040;-76
2021/08/24 08:58:02;;;;;;;4.28;2.70;;;16.10;10.60;;;;;;5081055;28;20054;-73
2021/08/24 09:00:47;;;;;;;4.50;2.85;;;16.20;10.50;;;;;;5092335;28;20120;-76
2021/08/24 09:03:18;;;;;;;4.03;2.30;;;16.30;9.30;;;;;;5077558;28;20446;-74
2021/08/24 09:05:47;;;;;;;3.85;2.80;;;16.30;9.60;;;;;;5088484;28;20101;-75
2021/08/24 09:08:20;;;;;;;4.35;2.65;;;16.40;9.70;;;;;;5094636;28;20044;-74
2021/08/24 09:10:51;;;;;;;5.00;2.58;;;16.20;8.50;;;;;;5068478;28;20480;-74
2021/08/24 09:13:26;;;;;;;4.32;2.60;;;16.30;9.70;;;;;;5091563;28;20305;-74
2021/08/24 09:16:00;;;;;;;5.88;2.70;;;16.30;9.30;;;;;;5069384;28;20063;-74
2021/08/24 09:18:42;;;;;;;3.42;2.70;;;16.40;9.30;;;;;;5069499;28;20126;-75
2021/08/24 09:21:14;;;;;;;3.65;2.80;;;16.10;10.40;;;;;;5079991;28;20048;-75
2021/08/24 09:23:43;;;;;;;4.90;3.10;;;16.10;11.50;;;;;;5075452;28;20059;-75
2021/08/24 09:26:24;;;;;;;3.72;2.78;;;16.10;11.00;;;;;;5076575;28;20402;-75
2021/08/24 09:28:54;;;;;;;6.05;3.50;;;16.00;11.90;;;;;;5099414;27;20536;-75
2021/08/24 09:31:25;;;;;;;5.55;2.92;;;15.80;13.00;;;;;;5094471;28;20703;-75
2021/08/24 09:33:53;;;;;;;5.35;2.80;;;16.00;12.40;;;;;;5092794;28;20506;-75
2021/08/24 09:36:21;;;;;;;4.50;3.22;;;16.10;11.90;;;;;;5096382;28;20047;-75
2021/08/24 09:38:51;;;;;;;5.25;2.83;;;16.20;12.80;;;;;;5094624;28;20117;-75
2021/08/24 09:41:23;;;;;;;5.50;3.63;;;16.00;11.90;;;;;;5093183;28;20055;-75
2021/08/24 09:43:53;;;;;;;4.28;3.00;;;16.10;12.80;;;;;;5092205;27;20112;-75
2021/08/24 09:46:34;;;;;;;3.67;2.67;;;16.20;12.20;;;;;;5092506;28;20100;-77
2021/08/24 09:49:05;;;;;;;4.60;2.90;;;16.30;12.10;;;;;;5094988;28;20422;-74
2021/08/24 09:51:41;;;;;;;3.45;2.55;;;16.20;12.00;;;;;;5091802;28;20105;-75
2021/08/24 09:54:16;;;;;;;7.90;3.53;;;16.10;14.00;;;;;;5066807;28;20534;-75
2021/08/24 09:56:52;;;;;;;3.28;2.92;;;16.30;13.60;;;;;;5092711;28;20047;-75
2021/08/24 09:59:27;;;;;;;5.38;3.20;;;16.50;12.80;;;;;;5097006;27;20043;-75
2021/08/24 10:01:57;;;;;;;4.35;3.13;;;16.80;10.40;;;;;;5098323;28;20495;-75
2021/08/24 10:04:25;;;;;;;4.38;3.25;;;16.60;8.60;;;;;;5054976;28;20048;-74
2021/08/24 10:07:01;;;;;;;5.07;3.22;;;16.90;8.80;;;;;;5075367;28;20101;-76
2021/08/24 10:09:33;;;;;;;4.05;3.10;;;16.50;7.70;;;;;;5073311;28;20066;-75
2021/08/24 10:12:22;;;;;;;4.63;3.90;;;16.80;7.50;;;;;;5047011;28;20040;-75
2021/08/24 10:14:52;;;;;;;6.88;3.67;;;16.70;8.00;;;;;;5073988;28;20070;-74
2021/08/24 10:17:29;;;;;;;5.18;3.53;;;16.60;7.60;;;;;;5075622;28;20063;-74
2021/08/24 10:19:58;;;;;;;5.82;4.35;;;16.70;7.50;;;;;;5068126;28;20961;-75
2021/08/24 10:22:31;;;;;;;4.45;3.33;;;16.70;8.00;;;;;;5075631;28;20059;-76
2021/08/24 10:25:03;;;;;;;4.75;3.30;;;16.70;8.70;;;;;;5036818;28;20048;-75
2021/08/24 10:27:34;;;;;;;5.03;3.47;;;16.70;8.20;;;;;;5075205;28;20101;-75
2021/08/24 10:30:05;;;;;;;4.88;3.38;;;17.10;7.00;;;;;;5081909;28;20044;-74
2021/08/24 10:32:38;;;;;;;4.57;3.60;;;17.00;7.20;;;;;;5097953;27;20058;-75
2021/08/24 10:35:14;;;;;;;5.43;3.88;;;16.90;6.80;;;;;;5087264;28;20047;-73
2021/08/24 10:37:48;;;;;;;5.55;3.67;;;16.70;7.40;;;;;;5096928;28;20500;-74
2021/08/24 10:40:28;;;;;;;4.63;3.63;;;16.60;7.90;;;;;;5074662;28;20048;-75
2021/08/24 10:43:16;;;;;;;4.35;3.95;;;16.70;8.60;;;;;;5068378;28;20056;-74
2021/08/24 10:45:46;;;;;;;4.57;3.60;;;16.80;7.90;;;;;;5083747;28;20063;-74
2021/08/24 10:48:18;;;;;;;5.25;3.45;;;17.00;8.10;;;;;;5081305;28;20446;-75
2021/08/24 10:50:54;;;;;;;7.13;3.88;;;16.90;7.40;;;;;;5070934;28;20086;-75
2021/08/24 10:53:36;;;;;;;5.20;3.65;;;16.80;8.60;;;;;;5075513;28;20055;-74
2021/08/24 10:56:11;;;;;;;6.13;3.83;;;17.20;7.20;;;;;;5071661;28;20050;-74
2021/08/24 10:58:50;;;;;;;5.43;3.80;;;17.00;7.40;;;;;;5076866;28;20048;-74
2021/08/24 11:01:22;;;;;;;5.72;3.67;;;17.10;7.00;;;;;;5067936;28;20047;-74
2021/08/24 11:04:28;;;;;;;5.40;4.00;;;16.90;8.00;;;;;;5076019;28;20488;-75
2021/08/24 11:07:04;;;;;;;;;;;17.10;7.20;;;;;;5086510;28;20044;-73
2021/08/24 11:09:41;;;;;;;4.75;3.50;;;17.00;7.30;;;;;;5082263;28;19985;-76
2021/08/24 11:12:19;;;;;;;4.88;4.07;;;17.30;7.20;;;;;;5073175;28;20048;-75
2021/08/24 11:14:58;;;;;;;3.50;3.20;;;17.50;5.90;;;;;;5056178;28;20056;-75
2021/08/24 11:17:39;;;;;;;5.25;3.80;;;17.40;6.40;;;;;;5076253;28;20152;-75
2021/08/24 11:20:20;;;;;;;7.20;4.18;;;17.50;6.30;;;;;;5073402;28;20052;-74
2021/08/24 11:23:02;;;;;;;4.57;4.03;;;17.60;5.50;;;;;;5075626;28;20048;-75
2021/08/24 11:25:41;;;;;;;6.68;4.80;;;17.70;5.50;;;;;;5076331;28;20064;-76
2021/08/24 11:28:14;;;;;;;4.97;3.80;;;17.80;5.30;;;;;;5083131;28;20044;-75
2021/08/24 11:30:45;;;;;;;4.23;3.63;;;18.10;4.10;;;;;;5052282;28;20059;-75
2021/08/24 11:33:18;;;;;;;6.32;4.10;;;17.80;4.90;;;;;;5076029;28;20076;-74
2021/08/24 11:35:54;;;;;;;4.27;3.60;;;17.70;4.90;;;;;;5069689;28;20411;-74
2021/08/24 11:38:28;;;;;;;7.38;5.80;;;17.40;4.90;;;;;;5078332;28;20051;-74
2021/08/24 11:41:00;;;;;;;9.40;4.78;;;17.60;5.50;;;;;;5075919;28;20052;-74
2021/08/24 11:43:36;;;;;;;5.50;4.25;;;17.60;5.50;;;;;;5077987;28;20052;-74
2021/08/24 11:46:08;;;;;;;6.13;4.35;;;17.60;5.50;;;;;;5065869;28;20075;-74
2021/08/24 11:48:41;;;;;;;5.05;4.10;;;17.70;5.50;;;;;;5071861;28;20067;-74
2021/08/24 11:51:20;;;;;;;8.55;4.35;;;17.60;5.50;;;;;;5071198;28;20059;-74
2021/08/24 11:53:54;;;;;;;4.53;3.75;;;17.60;5.10;;;;;;5069196;28;20056;-74
2021/08/24 11:56:36;;;;;;;6.15;3.83;;;17.70;5.60;;;;;;5075696;28;20036;-75
2021/08/24 11:59:13;;;;;;;5.15;3.67;;;17.80;5.60;;;;;;5094017;28;20048;-75
2021/08/24 12:01:46;;;;;;;5.43;4.15;;;17.50;4.90;;;;;;5075456;28;20055;-74
2021/08/24 12:04:19;;;;;;;4.00;3.55;;;17.50;5.40;;;;;;5064796;28;20047;-72
2021/08/24 12:06:51;;;;;;;5.63;3.97;;;17.50;5.40;;;;;;5093578;28;20040;-75
2021/08/24 12:09:37;;;;;;;6.10;3.70;;;17.50;5.40;;;;;;5092282;28;20047;-75
2021/08/24 12:12:07;;;;;;;5.97;4.25;;;17.60;5.50;;;;;;5089889;28;20051;-74
2021/08/24 12:14:41;;;;;;;5.43;3.83;;;17.80;5.20;;;;;;5086764;28;20040;-74
2021/08/24 12:17:22;;;;;;;5.15;4.10;;;18.10;4.30;;;;;;5093183;28;20096;-74
2021/08/24 12:19:57;;;;;;;4.93;3.88;;;17.90;3.90;;;;;;5094280;28;20055;-75
2021/08/24 12:22:34;;;;;;;4.70;3.60;;;18.00;3.70;;;;;;5091581;28;20159;-75
2021/08/24 12:25:08;;;;;;;4.07;3.40;;;17.80;3.70;;;;;;5090478;28;20493;-74
2021/08/24 12:27:56;;;;;;;4.30;3.13;;;18.00;3.90;;;;;;5098027;28;20047;-75
2021/08/24 12:30:57;;;;;;;8.57;3.95;;;17.90;4.40;;;;;;5096895;28;20047;-74
2021/08/24 12:33:32;;;;;;;7.38;3.58;;;18.00;3.70;;;;;;5078198;28;20588;-74
2021/08/24 12:36:01;;;;;;;4.53;3.88;;;17.90;3.80;;;;;;5092922;28;20044;-74
2021/08/24 12:38:47;;;;;;;6.13;3.80;;;17.90;4.00;;;;;;5098307;28;20666;-73
2021/08/24 12:41:44;;;;;;;4.78;3.38;;;17.90;3.20;;;;;;5091728;28;20539;-74
2021/08/24 12:44:26;;;;;;;5.63;3.58;;;18.00;4.50;;;;;;5074536;28;20040;-75
2021/08/24 12:47:31;;;;;;;5.10;3.75;;;18.10;3.40;;;;;;5079218;28;20048;-75
2021/08/24 12:50:38;;;;;;;4.00;3.60;;;17.90;3.60;;;;;;5089963;28;20702;-75
2021/08/24 12:53:38;;;;;;;6.35;4.00;;;18.10;3.50;;;;;;5094109;28;20047;-75
2021/08/24 12:56:08;;;;;;;5.93;3.50;;;18.10;2.40;;;;;;5078650;28;20529;-74
2021/08/24 12:58:48;;;;;;;7.40;3.53;;;18.00;2.10;;;;;;5094158;28;20052;-74
2021/08/24 13:01:26;;;;;;;4.20;3.25;;;18.10;3.20;;;;;;5078394;28;20047;-74
2021/08/24 13:04:06;;;;;;;4.35;3.33;;;18.10;2.40;;;;;;5088421;28;20173;-74
2021/08/24 13:06:37;;;;;;;6.70;3.65;;;18.40;2.20;;;;;;5096091;28;20109;-74
2021/08/24 13:09:22;;;;;;;5.35;3.42;;;17.90;2.30;;;;;;5095201;28;20259;-74
2021/08/24 13:12:17;;;;;;;4.43;3.45;;;18.20;2.10;;;;;;5088212;28;20047;-74